Time;durP1;ratioP1;P1;durP2;ratioP2;P2;SDS_P1;SDS_P2;PMS_P1;PMS_P2;Temp;Humidity;BMP_temperature;BMP_pressure;BME280_temperature;BME280_humidity;BME280_pressure;Samples;Min_cycle;Max_cycle;Signal;HPM_P1;HPM_P2
2023/08/03 00:00:13;;;;;;;0.43;0.38;;;;;;;18.25;100.00;98668.91;4838991;29;20061;-94
2023/08/03 00:02:41;;;;;;;0.22;0.20;;;;;;;18.39;100.00;98684.63;4836581;29;20149;-94
2023/08/03 00:05:07;;;;;;;0.22;0.22;;;;;;;18.48;100.00;98698.31;4854241;29;20476;-94
2023/08/03 00:07:32;;;;;;;0.30;0.30;;;;;;;18.59;100.00;98708.72;4835423;29;20038;-94
2023/08/03 00:09:58;;;;;;;0.10;0.10;;;;;;;18.61;100.00;98706.91;4825150;29;20663;-93
2023/08/03 00:12:24;;;;;;;0.57;0.50;;;;;;;18.44;100.00;98680.25;4850033;29;20647;-94
2023/08/03 00:14:50;;;;;;;0.10;0.10;;;;;;;18.52;100.00;98687.59;4839354;29;20049;-94
2023/08/03 00:17:16;;;;;;;0.75;0.68;;;;;;;18.66;100.00;98701.78;4840672;29;20392;-94
2023/08/03 00:19:41;;;;;;;0.80;0.45;;;;;;;18.45;100.00;98682.50;4848277;29;20049;-94
2023/08/03 00:22:08;;;;;;;0.13;0.13;;;;;;;18.67;100.00;98703.31;4837968;29;20037;-94
2023/08/03 00:24:34;;;;;;;0.28;0.22;;;;;;;18.55;100.00;98686.56;4841538;29;20046;-94
2023/08/03 00:26:59;;;;;;;0.70;0.70;;;;;;;18.61;100.00;98695.69;4837079;29;20124;-94
2023/08/03 00:29:25;;;;;;;0.40;0.30;;;;;;;18.66;100.00;98698.97;4825022;29;20037;-93
2023/08/03 00:31:50;;;;;;;0.40;0.40;;;;;;;18.65;100.00;98701.00;4823611;29;20057;-95
2023/08/03 00:34:16;;;;;;;0.20;0.20;;;;;;;18.63;100.00;98701.56;4835892;29;20377;-94
2023/08/03 00:36:42;;;;;;;0.05;0.05;;;;;;;18.52;100.00;98679.16;4839722;29;20030;-92
2023/08/03 00:39:07;;;;;;;0.47;0.40;;;;;;;18.69;100.00;98704.28;4862300;29;20487;-94
2023/08/03 00:41:33;;;;;;;0.35;0.30;;;;;;;18.56;100.00;98681.72;4854873;29;20041;-93
2023/08/03 00:43:59;;;;;;;0.30;0.30;;;;;;;18.54;100.00;98673.78;4862802;29;20049;-93
2023/08/03 00:46:24;;;;;;;0.35;0.35;;;;;;;18.57;100.00;98686.78;4835324;29;20137;-93
2023/08/03 00:48:50;;;;;;;1.05;0.38;;;;;;;18.60;100.00;98694.16;4834870;29;20046;-94
2023/08/03 00:51:16;;;;;;;3.17;1.65;;;;;;;18.49;100.00;98666.16;4853327;29;20046;-92
2023/08/03 00:53:45;;;;;;;0.30;0.30;;;;;;;18.66;100.00;98696.91;4845676;29;20053;-93
2023/08/03 00:56:12;;;;;;;1.23;0.50;;;;;;;18.59;100.00;98675.03;4839574;29;20053;-93
2023/08/03 00:58:39;;;;;;;0.25;0.17;;;;;;;18.50;100.00;98667.69;4839738;29;20518;-93
2023/08/03 01:03:47;;;;;;;0.30;0.30;;;;;;;18.69;100.00;98706.34;4966899;23;20061;-91
2023/08/03 01:06:12;;;;;;;0.63;0.55;;;;;;;18.61;100.00;98690.06;4816629;29;20045;-91
2023/08/03 01:08:38;;;;;;;0.47;0.35;;;;;;;18.66;100.00;98684.91;4807226;29;20132;-91
2023/08/03 01:11:03;;;;;;;0.00;0.00;;;;;;;18.63;100.00;98681.88;4809272;29;20049;-91
2023/08/03 01:13:29;;;;;;;0.98;0.98;;;;;;;18.65;100.00;98684.16;4823356;29;20041;-91
2023/08/03 01:15:57;;;;;;;0.68;0.68;;;;;;;18.63;100.00;98676.28;4822968;29;20573;-91
2023/08/03 01:18:22;;;;;;;14.00;0.77;;;;;;;18.60;100.00;98685.72;4820501;29;20102;-92
2023/08/03 01:20:48;;;;;;;1.95;1.08;;;;;;;18.64;100.00;98677.03;4837820;29;20053;-91
2023/08/03 01:23:14;;;;;;;0.60;0.45;;;;;;;18.68;100.00;98682.38;4821376;29;20088;-91
2023/08/03 01:25:40;;;;;;;0.20;0.20;;;;;;;18.66;100.00;98679.31;4823296;29;20105;-91
2023/08/03 01:28:06;;;;;;;1.55;0.55;;;;;;;18.67;100.00;98675.97;4807806;29;20042;-91
2023/08/03 01:30:32;;;;;;;0.25;0.15;;;;;;;18.68;100.00;98679.56;4820976;29;20050;-91
2023/08/03 01:32:58;;;;;;;0.25;0.25;;;;;;;18.59;100.00;98670.19;4818959;29;20137;-91
2023/08/03 01:35:24;;;;;;;0.57;0.57;;;;;;;18.62;100.00;98674.75;4821471;29;20582;-92
2023/08/03 01:37:50;;;;;;;0.82;0.60;;;;;;;18.58;100.00;98674.28;4817682;29;20041;-91
2023/08/03 01:40:17;;;;;;;0.60;0.60;;;;;;;18.59;100.00;98667.38;4823601;29;20117;-90
2023/08/03 01:42:44;;;;;;;0.80;0.57;;;;;;;18.59;100.00;98673.00;4809016;29;20036;-91
2023/08/03 01:45:11;;;;;;;2.28;0.65;;;;;;;18.57;100.00;98667.13;4809110;29;20141;-91
2023/08/03 01:47:37;;;;;;;0.10;0.10;;;;;;;18.57;100.00;98661.50;4834667;29;20117;-91
2023/08/03 01:50:03;;;;;;;0.93;0.88;;;;;;;18.57;100.00;98667.13;4820259;29;20112;-91
2023/08/03 01:52:28;;;;;;;0.70;0.70;;;;;;;18.50;100.00;98656.44;4836488;29;20577;-91
2023/08/03 01:54:54;;;;;;;0.90;0.75;;;;;;;18.50;100.00;98652.88;4822366;29;20049;-91
2023/08/03 01:57:19;;;;;;;0.40;0.40;;;;;;;18.53;100.00;98660.28;4820002;29;20100;-91
2023/08/03 01:59:45;;;;;;;2.28;1.27;;;;;;;18.53;100.00;98658.22;4824522;29;20127;-90
2023/08/03 02:02:14;;;;;;;1.10;0.70;;;;;;;18.47;100.00;98648.31;4815138;29;20046;-91
2023/08/03 02:04:40;;;;;;;0.82;0.70;;;;;;;18.51;100.00;98652.34;4831090;29;20049;-91
2023/08/03 02:07:15;;;;;;;0.10;0.10;;;;;;;18.52;100.00;98661.56;4840598;29;20049;-91
2023/08/03 02:09:40;;;;;;;1.55;0.90;;;;;;;18.48;100.00;98653.38;4866980;29;20049;-91
2023/08/03 02:12:07;;;;;;;0.93;0.93;;;;;;;18.47;100.00;98660.31;4841335;29;20067;-91
2023/08/03 02:14:32;;;;;;;0.60;0.60;;;;;;;18.45;100.00;98648.06;4856139;29;20052;-92
2023/08/03 02:16:58;;;;;;;0.57;0.57;;;;;;;18.43;100.00;98659.84;4855754;29;20041;-90
2023/08/03 02:19:23;;;;;;;0.68;0.68;;;;;;;18.39;100.00;98655.78;4841823;29;20353;-90
2023/08/03 02:21:49;;;;;;;0.63;0.63;;;;;;;18.41;100.00;98664.44;4841530;29;20465;-91
2023/08/03 02:24:15;;;;;;;0.73;0.73;;;;;;;18.45;100.00;98678.94;4842805;29;20051;-91
2023/08/03 02:26:40;;;;;;;0.28;0.28;;;;;;;18.43;100.00;98678.72;4859465;29;20052;-91
2023/08/03 02:29:07;;;;;;;0.60;0.60;;;;;;;18.41;100.00;98670.81;4859430;29;20045;-90
2023/08/03 02:31:33;;;;;;;0.57;0.55;;;;;;;18.33;100.00;98667.06;4862559;29;20048;-90
2023/08/03 02:33:58;;;;;;;0.85;0.85;;;;;;;18.39;100.00;98672.63;4859024;29;20314;-90
2023/08/03 02:36:32;;;;;;;0.93;0.82;;;;;;;18.34;100.00;98674.19;4874657;29;20476;-91
2023/08/03 02:39:03;;;;;;;1.88;1.33;;;;;;;18.36;100.00;98688.47;4846100;29;20041;-91
2023/08/03 02:41:31;;;;;;;1.25;0.90;;;;;;;18.30;100.00;98676.53;4859881;29;20045;-90
2023/08/03 02:43:58;;;;;;;0.80;0.65;;;;;;;18.33;100.00;98694.34;4860215;29;20053;-92
2023/08/03 02:46:30;;;;;;;0.50;0.50;;;;;;;18.31;100.00;98689.28;4860186;29;20497;-91
2023/08/03 02:48:57;;;;;;;0.50;0.50;;;;;;;18.34;100.00;98693.09;4840845;29;20046;-91
2023/08/03 02:51:25;;;;;;;0.75;0.75;;;;;;;18.33;100.00;98699.97;4874707;29;20039;-90
2023/08/03 02:53:51;;;;;;;1.13;1.02;;;;;;;18.28;100.00;98701.53;4872928;29;20048;-90
2023/08/03 02:56:16;;;;;;;1.10;0.88;;;;;;;18.28;100.00;98700.78;4859689;29;20059;-91
2023/08/03 02:58:47;;;;;;;0.75;0.40;;;;;;;18.27;100.00;98707.69;4860269;29;20044;-91
2023/08/03 03:01:22;;;;;;;0.60;0.60;;;;;;;18.07;100.00;98680.78;4860429;29;20132;-91
2023/08/03 03:03:51;;;;;;;0.65;0.65;;;;;;;18.23;100.00;98722.00;4828448;29;20107;-90
2023/08/03 03:06:16;;;;;;;0.47;0.47;;;;;;;18.14;100.00;98706.25;4837044;29;20058;-90
2023/08/03 03:08:45;;;;;;;1.08;1.05;;;;;;;18.18;100.00;98722.81;4826025;29;20049;-90
2023/08/03 03:11:11;;;;;;;0.80;0.65;;;;;;;18.13;100.00;98715.94;4828457;29;20466;-92
2023/08/03 03:13:36;;;;;;;2.30;1.17;;;;;;;18.13;100.00;98713.13;4841275;29;20049;-91
2023/08/03 03:16:02;;;;;;;0.73;0.73;;;;;;;18.12;100.00;98733.28;4822934;29;20061;-90
2023/08/03 03:18:29;;;;;;;0.82;0.60;;;;;;;18.16;100.00;98734.53;4824067;29;20049;-90
2023/08/03 03:20:54;;;;;;;1.00;1.00;;;;;;;18.14;100.00;98737.13;4839270;29;20061;-90
2023/08/03 03:23:20;;;;;;;0.98;0.90;;;;;;;18.10;100.00;98725.41;4839703;29;20049;-91
2023/08/03 03:25:45;;;;;;;0.73;0.73;;;;;;;18.14;100.00;98730.72;4825135;29;20053;-91
2023/08/03 03:28:11;;;;;;;0.50;0.43;;;;;;;18.13;100.00;98729.19;4825085;29;20413;-90
2023/08/03 03:30:38;;;;;;;0.63;0.50;;;;;;;18.11;100.00;98726.16;4841245;29;20915;-91
2023/08/03 03:33:06;;;;;;;0.90;0.88;;;;;;;18.11;100.00;98743.00;4810664;29;20053;-91
2023/08/03 03:35:32;;;;;;;0.43;0.43;;;;;;;18.12;100.00;98741.69;4832839;29;20049;-91
2023/08/03 03:37:58;;;;;;;0.82;0.63;;;;;;;18.09;100.00;98739.94;4823861;29;20045;-92
2023/08/03 03:40:29;;;;;;;1.17;0.95;;;;;;;18.13;100.00;98737.63;4824607;29;20049;-91
2023/08/03 03:42:58;;;;;;;1.25;1.15;;;;;;;18.13;100.00;98751.66;4824528;29;20122;-91
2023/08/03 03:45:23;;;;;;;0.68;0.68;;;;;;;18.05;100.00;98734.63;4825515;29;20501;-90
2023/08/03 03:47:49;;;;;;;0.98;0.93;;;;;;;18.15;100.00;98754.72;4810659;29;20069;-91
2023/08/03 03:50:15;;;;;;;0.60;0.60;;;;;;;18.16;100.00;98761.84;4828297;29;20120;-89
2023/08/03 03:52:40;;;;;;;1.65;0.93;;;;;;;18.20;100.00;98764.38;4843113;29;20049;-88
2023/08/03 03:55:07;;;;;;;0.60;0.60;;;;;;;18.22;100.00;98771.00;4825601;29;20053;-89
2023/08/03 03:57:33;;;;;;;0.95;0.93;;;;;;;18.26;100.00;98771.47;4824580;29;20045;-92
2023/08/03 03:59:59;;;;;;;1.08;0.98;;;;;;;18.29;100.00;98773.25;4822526;29;20037;-88
2023/08/03 04:02:25;;;;;;;0.52;0.30;;;;;;;18.29;100.00;98776.03;4830136;29;20389;-90
2023/08/03 04:04:54;;;;;;;0.50;0.40;;;;;;;18.26;100.00;98777.09;4853764;29;20362;-90
2023/08/03 04:07:20;;;;;;;0.73;0.70;;;;;;;18.31;100.00;98779.09;4858419;29;20064;-90
2023/08/03 04:09:45;;;;;;;0.85;0.63;;;;;;;18.38;100.00;98784.16;4855635;29;20441;-90
2023/08/03 04:12:11;;;;;;;1.25;1.13;;;;;;;18.40;100.00;98787.19;4855153;29;20425;-89
2023/08/03 04:14:37;;;;;;;0.60;0.60;;;;;;;18.36;100.00;98781.09;4858463;29;20080;-90
2023/08/03 04:17:02;;;;;;;1.48;1.13;;;;;;;18.40;100.00;98781.59;4844004;29;20056;-90
2023/08/03 04:19:29;;;;;;;0.47;0.47;;;;;;;18.31;100.00;98761.50;4871714;29;20126;-90
2023/08/03 04:21:55;;;;;;;1.02;0.65;;;;;;;18.47;100.00;98791.50;4843575;29;20423;-89
2023/08/03 04:24:20;;;;;;;0.52;0.50;;;;;;;18.52;100.00;98799.91;4860741;29;20069;-90
2023/08/03 04:26:47;;;;;;;0.60;0.47;;;;;;;18.55;100.00;98810.13;4858073;29;20043;-90
2023/08/03 04:29:18;;;;;;;1.23;1.00;;;;;;;18.56;100.00;98814.44;4863251;29;20137;-90
2023/08/03 04:31:44;;;;;;;0.60;0.60;;;;;;;18.59;100.00;98821.84;4856651;29;20056;-90
2023/08/03 04:34:09;;;;;;;3.92;1.15;;;;;;;18.58;100.00;98825.16;4855304;29;20049;-91
2023/08/03 04:36:37;;;;;;;0.77;0.77;;;;;;;18.60;100.00;98823.34;4840525;29;20092;-91
2023/08/03 04:39:03;;;;;;;1.15;1.10;;;;;;;18.69;100.00;98836.31;4855006;29;20056;-90
2023/08/03 04:41:29;;;;;;;1.15;0.68;;;;;;;18.74;100.00;98827.06;4842644;29;20136;-90
2023/08/03 04:43:55;;;;;;;2.45;1.25;;;;;;;18.79;100.00;98831.13;4844961;29;20482;-90
2023/08/03 04:46:21;;;;;;;1.08;0.88;;;;;;;18.88;100.00;98837.19;4856023;29;20045;-90
2023/08/03 04:48:50;;;;;;;1.13;1.05;;;;;;;18.96;100.00;98843.00;4857755;29;20053;-90
2023/08/03 04:51:16;;;;;;;0.45;0.43;;;;;;;19.03;100.00;98842.44;4870675;29;20048;-90
2023/08/03 04:53:41;;;;;;;0.50;0.50;;;;;;;19.13;100.00;98835.19;4854725;29;20048;-90
2023/08/03 04:56:07;;;;;;;1.08;1.05;;;;;;;19.20;100.00;98829.00;4859244;29;20048;-91
2023/08/03 04:58:33;;;;;;;1.27;1.02;;;;;;;19.20;100.00;98822.63;4872272;29;20049;-91
2023/08/03 05:01:00;;;;;;;0.70;0.60;;;;;;;19.27;100.00;98834.03;4858334;29;20228;-92
2023/08/03 05:03:35;;;;;;;1.52;1.42;;;;;;;19.39;100.00;98848.75;4843675;29;20433;-92
2023/08/03 05:06:02;;;;;;;0.28;0.28;;;;;;;19.53;100.00;98847.63;4868753;29;20080;-90
2023/08/03 05:08:38;;;;;;;0.50;0.43;;;;;;;19.57;100.00;98856.53;4876195;29;20187;-92
2023/08/03 05:11:04;;;;;;;0.73;0.60;;;;;;;19.60;100.00;98849.84;4842562;29;20520;-90
2023/08/03 05:13:35;;;;;;;1.30;1.00;;;;;;;19.60;100.00;98837.84;4877503;29;20135;-90
2023/08/03 05:16:04;;;;;;;0.32;0.32;;;;;;;19.69;100.00;98841.06;4875593;29;20073;-91
2023/08/03 05:18:32;;;;;;;0.52;0.52;;;;;;;20.06;100.00;98884.66;4857405;29;20188;-90
2023/08/03 05:20:57;;;;;;;0.68;0.57;;;;;;;20.22;100.00;98898.50;4857967;29;20398;-91
2023/08/03 05:23:29;;;;;;;1.02;0.98;;;;;;;20.27;100.00;98892.06;4874280;29;20044;-91
2023/08/03 05:25:58;;;;;;;0.73;0.73;;;;;;;20.39;100.00;98890.66;4862507;29;20493;-92
2023/08/03 05:28:25;;;;;;;0.30;0.30;;;;;;;20.62;100.00;98924.16;4863456;29;20127;-91
2023/08/03 05:30:51;;;;;;;4.03;1.52;;;;;;;20.61;100.00;98928.28;4868371;29;20224;-91
2023/08/03 05:33:16;;;;;;;0.45;0.45;;;;;;;20.53;100.00;98916.09;4870072;29;20110;-90
2023/08/03 05:35:42;;;;;;;1.08;0.98;;;;;;;20.58;100.00;98934.97;4887083;29;20092;-92
2023/08/03 05:38:08;;;;;;;0.85;0.60;;;;;;;20.53;100.00;98942.19;4869307;29;20485;-91
2023/08/03 05:40:33;;;;;;;0.35;0.35;;;;;;;20.55;100.00;98941.66;4866492;29;20048;-91
2023/08/03 05:42:59;;;;;;;2.00;1.77;;;;;;;20.56;100.00;98951.63;4867461;29;20105;-91
2023/08/03 05:45:47;;;;;;;0.17;0.17;;;;;;;20.61;100.00;98956.44;4866087;29;21480;-90
2023/08/03 05:48:20;;;;;;;0.70;0.70;;;;;;;20.65;100.00;98974.56;4872303;29;20501;-90
2023/08/03 05:50:50;;;;;;;1.10;0.77;;;;;;;20.65;100.00;98963.31;4840517;29;20152;-89
2023/08/03 05:53:16;;;;;;;1.05;0.95;;;;;;;20.70;100.00;98975.81;4889814;29;20162;-91
2023/08/03 05:55:42;;;;;;;1.35;1.25;;;;;;;20.62;100.00;98972.06;4873299;29;20639;-89
2023/08/03 05:58:10;;;;;;;0.73;0.57;;;;;;;20.67;100.00;98971.97;4862618;29;20049;-91
2023/08/03 06:00:46;;;;;;;0.63;0.60;;;;;;;20.71;100.00;98977.31;4872853;29;20201;-92
2023/08/03 06:03:13;;;;;;;0.30;0.30;;;;;;;20.77;100.00;98984.41;4858565;29;20052;-90
2023/08/03 06:05:38;;;;;;;0.63;0.63;;;;;;;20.83;100.00;98989.94;4869006;29;20053;-91
2023/08/03 06:08:24;;;;;;;0.52;0.52;;;;;;;20.87;100.00;98988.34;4870869;29;20044;-90
2023/08/03 06:11:00;;;;;;;0.52;0.47;;;;;;;20.92;100.00;98981.13;4859373;29;20053;-92
2023/08/03 06:13:27;;;;;;;0.52;0.43;;;;;;;20.92;100.00;98987.53;4860550;29;20045;-91
2023/08/03 06:15:55;;;;;;;0.85;0.57;;;;;;;20.90;100.00;98978.09;4860544;29;20490;-90
2023/08/03 06:18:21;;;;;;;0.73;0.55;;;;;;;20.91;100.00;98985.22;4857462;29;20037;-91
2023/08/03 06:20:51;;;;;;;0.70;0.70;;;;;;;20.90;100.00;98984.50;4867939;29;20176;-91
2023/08/03 06:23:23;;;;;;;0.40;0.40;;;;;;;20.92;100.00;98981.13;4890996;29;20479;-92
2023/08/03 06:25:50;;;;;;;0.68;0.63;;;;;;;20.91;100.00;98982.41;4844256;29;20037;-90
2023/08/03 06:28:20;;;;;;;0.88;0.80;;;;;;;21.05;100.00;98988.91;4873684;29;20057;-90
2023/08/03 06:30:47;;;;;;;0.77;0.77;;;;;;;21.08;100.00;98993.47;4886813;29;20522;-90
2023/08/03 06:33:14;;;;;;;0.55;0.55;;;;;;;21.13;100.00;98998.28;4840627;29;20112;-90
2023/08/03 06:35:41;;;;;;;0.93;0.55;;;;;;;21.18;100.00;99005.91;4881877;29;20104;-91
2023/08/03 06:38:14;;;;;;;1.50;1.40;;;;;;;21.21;100.00;98991.50;4856938;29;20852;-91
2023/08/03 06:40:41;;;;;;;0.32;0.32;;;;;;;21.20;100.00;98995.63;4858428;29;20448;-90
2023/08/03 06:43:08;;;;;;;0.45;0.45;;;;;;;21.22;100.00;98992.28;4857311;29;20048;-91
2023/08/03 06:45:33;;;;;;;2.17;1.33;;;;;;;21.21;100.00;98999.97;4858945;29;20125;-91
2023/08/03 06:48:00;;;;;;;1.50;1.38;;;;;;;21.20;100.00;99004.06;4860332;29;20045;-91
2023/08/03 06:50:29;;;;;;;0.90;0.57;;;;;;;21.23;100.00;99005.09;4856182;29;20056;-90
2023/08/03 06:52:56;;;;;;;1.10;1.00;;;;;;;21.18;100.00;99003.09;4853716;29;20056;-90
2023/08/03 06:55:21;;;;;;;0.95;0.70;;;;;;;21.21;100.00;99013.31;4872135;29;20482;-90
2023/08/03 06:57:47;;;;;;;0.38;0.32;;;;;;;21.20;100.00;99015.34;4859653;29;20041;-90
2023/08/03 07:00:14;;;;;;;0.20;0.20;;;;;;;21.17;100.00;99016.44;4855726;29;20564;-92
2023/08/03 07:02:39;;;;;;;1.02;0.50;;;;;;;21.19;100.00;99022.28;4874131;29;20197;-90
2023/08/03 07:05:05;;;;;;;1.15;0.80;;;;;;;21.16;100.00;98997.97;4858008;29;20257;-90
2023/08/03 07:07:31;;;;;;;1.17;0.95;;;;;;;21.18;100.00;99001.03;4874841;29;20052;-91
2023/08/03 07:09:57;;;;;;;1.55;1.05;;;;;;;21.14;100.00;98980.84;4844531;29;20045;-91
2023/08/03 07:12:22;;;;;;;1.38;0.75;;;;;;;21.31;100.00;98994.69;4849574;29;20045;-90
2023/08/03 07:14:48;;;;;;;0.55;0.55;;;;;;;21.25;100.00;98982.72;4859423;29;20033;-90
2023/08/03 07:17:14;;;;;;;1.23;0.85;;;;;;;21.27;100.00;98991.44;4897734;29;20037;-92
2023/08/03 07:19:41;;;;;;;0.50;0.50;;;;;;;21.49;100.00;99021.34;4884455;29;20076;-90
2023/08/03 07:22:08;;;;;;;0.52;0.52;;;;;;;21.43;100.00;99023.50;4853470;29;20156;-90
2023/08/03 07:24:34;;;;;;;1.83;1.73;;;;;;;21.38;100.00;99023.06;4854007;29;20131;-89
2023/08/03 07:27:00;;;;;;;0.55;0.55;;;;;;;21.24;100.00;99006.59;4869125;29;20449;-90
2023/08/03 07:29:29;;;;;;;0.82;0.80;;;;;;;21.22;100.00;99034.56;4855453;29;20113;-89
2023/08/03 07:31:55;;;;;;;1.95;1.33;;;;;;;21.23;100.00;99038.94;4856136;29;20105;-90
2023/08/03 07:34:21;;;;;;;0.45;0.30;;;;;;;21.21;100.00;99045.09;4886583;29;20056;-90
2023/08/03 07:36:47;;;;;;;1.10;1.00;;;;;;;21.05;100.00;99017.84;4887805;29;20057;-91
2023/08/03 07:39:12;;;;;;;1.58;1.45;;;;;;;21.15;100.00;99038.00;4863732;29;20033;-89
2023/08/03 07:41:38;;;;;;;0.60;0.60;;;;;;;21.16;100.00;99039.50;4885511;29;20517;-89
2023/08/03 07:44:04;;;;;;;0.75;0.75;;;;;;;21.22;100.00;99055.09;4857007;29;20069;-90
2023/08/03 07:46:33;;;;;;;0.90;0.32;;;;;;;21.11;100.00;99038.25;4853831;29;20053;-90
2023/08/03 07:49:16;;;;;;;0.50;0.50;;;;;;;21.24;100.00;99046.84;4868198;29;20676;-92
2023/08/03 07:51:50;;;;;;;1.35;1.25;;;;;;;21.24;100.00;99051.72;4854779;29;20060;-93
2023/08/03 07:54:15;;;;;;;1.45;0.68;;;;;;;21.20;100.00;99056.88;4856737;29;20390;-92
2023/08/03 07:56:50;;;;;;;0.68;0.68;;;;;;;21.26;100.00;99061.19;4886342;29;20033;-92
2023/08/03 07:59:36;;;;;;;0.90;0.40;;;;;;;21.34;100.00;99076.19;4877318;29;20045;-93
2023/08/03 08:02:04;;;;;;;1.10;0.98;;;;;;;21.22;100.00;99055.09;4873476;29;20501;-95
2023/08/03 08:09:01;;;;;;;1.20;0.80;;;;;;;21.28;100.00;99058.56;4854923;29;20064;-93
2023/08/03 08:11:30;;;;;;;17.88;0.80;;;;;;;21.23;100.00;99067.88;4834321;29;20068;-92
2023/08/03 08:13:57;;;;;;;1.30;1.15;;;;;;;21.29;100.00;99088.31;4838515;29;20471;-93
2023/08/03 12:42:54;;;;;;;0.40;0.40;;;;;;;24.58;96.29;99193.06;1197933;23;20314;-93
2023/08/03 12:45:23;;;;;;;0.95;0.80;;;;;;;24.32;98.80;99171.28;4850812;29;20057;-96
2023/08/03 12:47:53;;;;;;;0.20;0.15;;;;;;;24.18;99.00;99163.41;4846238;29;20057;-95
2023/08/03 12:50:18;;;;;;;0.57;0.40;;;;;;;24.10;97.27;99166.88;4847060;29;20628;-96
2023/08/03 12:52:46;;;;;;;0.10;0.10;;;;;;;24.12;98.41;99184.09;4860024;29;20077;-93
2023/08/03 12:55:12;;;;;;;0.50;0.50;;;;;;;23.92;100.00;99187.66;4867312;29;20072;-94
2023/08/03 12:57:38;;;;;;;0.45;0.30;;;;;;;23.81;100.00;99187.91;4863413;29;20097;-92
2023/08/03 13:00:08;;;;;;;0.10;0.10;;;;;;;23.54;100.00;99175.88;4879634;29;20501;-93
2023/08/03 13:02:33;;;;;;;0.20;0.20;;;;;;;23.44;100.00;99166.34;4862965;29;20045;-94
2023/08/03 13:04:59;;;;;;;0.77;0.77;;;;;;;23.25;100.00;99163.59;4852977;29;20129;-93
2023/08/03 13:07:24;;;;;;;0.30;0.30;;;;;;;23.22;100.00;99153.38;4873659;29;20116;-95
2023/08/03 13:09:50;;;;;;;0.38;0.38;;;;;;;23.24;100.00;99156.44;4857347;29;20390;-93
2023/08/03 13:12:16;;;;;;;0.30;0.30;;;;;;;23.49;100.00;99150.53;4858016;29;20153;-94
2023/08/03 13:14:41;;;;;;;0.30;0.30;;;;;;;24.12;100.00;99163.50;4871595;29;20041;-93
2023/08/03 13:17:07;;;;;;;0.17;0.15;;;;;;;24.44;100.00;99160.41;4858353;29;20092;-94
2023/08/03 13:19:33;;;;;;;0.57;0.57;;;;;;;24.78;100.00;99189.44;4854336;29;20048;-95
2023/08/03 13:21:59;;;;;;;0.10;0.10;;;;;;;24.67;100.00;99161.34;4859675;29;20049;-96
2023/08/03 13:24:25;;;;;;;0.20;0.20;;;;;;;24.66;100.00;99164.78;4857410;29;20057;-95
2023/08/03 13:26:50;;;;;;;0.73;0.52;;;;;;;24.69;100.00;99146.63;4851201;29;20561;-93
2023/08/03 13:29:20;;;;;;;0.25;0.25;;;;;;;24.79;100.00;99153.34;4841473;29;20037;-95
2023/08/03 13:31:46;;;;;;;0.52;0.32;;;;;;;24.93;100.00;99161.22;4858994;29;20121;-95
2023/08/03 13:34:12;;;;;;;0.40;0.40;;;;;;;25.11;100.00;99164.34;4857784;29;20072;-94
2023/08/03 13:36:38;;;;;;;0.28;0.22;;;;;;;25.52;100.00;99152.81;4855124;29;20132;-94
2023/08/03 13:39:04;;;;;;;0.63;0.50;;;;;;;25.89;100.00;99157.13;4855309;29;20071;-93
2023/08/03 13:41:30;;;;;;;0.20;0.20;;;;;;;26.08;93.75;99162.50;4853271;29;20388;-93
2023/08/03 13:43:55;;;;;;;1.25;0.93;;;;;;;26.02;91.80;99168.34;4877383;29;20111;-94
2023/08/03 13:46:22;;;;;;;0.38;0.38;;;;;;;25.96;89.66;99174.19;4854542;29;20037;-94
2023/08/03 13:48:47;;;;;;;0.40;0.28;;;;;;;25.98;91.33;99185.75;4882664;29;20501;-93
2023/08/03 13:51:13;;;;;;;0.17;0.17;;;;;;;25.89;79.64;99180.63;4871253;29;20124;-93
2023/08/03 15:55:40;;;;;;;0.30;0.28;;;;;;;23.07;76.78;99186.34;4868846;29;20057;-94
2023/08/03 15:58:06;;;;;;;0.47;0.20;;;;;;;23.18;77.03;99200.25;4841147;29;20053;-93
2023/08/03 16:00:34;;;;;;;0.10;0.10;;;;;;;23.16;76.09;99203.66;4842699;29;20041;-94
2023/08/03 16:03:03;;;;;;;0.00;0.00;;;;;;;23.13;76.38;99199.06;4827826;29;20063;-93
2023/08/03 16:05:32;;;;;;;0.17;0.15;;;;;;;23.13;79.15;99199.06;4841175;29;20099;-94
2023/08/03 16:07:58;;;;;;;4.30;0.52;;;;;;;23.03;77.60;99195.16;4836133;29;20056;-93
2023/08/03 16:10:23;;;;;;;0.00;0.00;;;;;;;22.87;77.46;99201.13;4825096;29;20060;-93
2023/08/03 16:12:49;;;;;;;1.05;0.43;;;;;;;22.75;75.09;99189.25;4840105;29;20033;-94
2023/08/03 16:15:15;;;;;;;0.20;0.20;;;;;;;22.69;76.64;99192.19;4837985;29;20045;-93
2023/08/03 16:17:41;;;;;;;1.10;0.43;;;;;;;22.55;76.35;99181.38;4823133;29;20048;-93
2023/08/03 16:20:07;;;;;;;0.88;0.52;;;;;;;22.56;77.87;99165.94;4823912;29;20204;-94
2023/08/03 16:22:33;;;;;;;0.00;0.00;;;;;;;22.52;76.22;99182.44;4844496;29;20564;-93
2023/08/03 16:24:59;;;;;;;0.17;0.17;;;;;;;22.29;76.71;99194.09;4830598;29;20132;-94
2023/08/03 16:27:31;;;;;;;0.20;0.10;;;;;;;22.26;78.20;99200.84;4823921;29;20052;-94
2023/08/03 16:30:08;;;;;;;;;;;;;;;22.12;78.75;99204.16;4843273;29;20072;-92
2023/08/03 16:32:35;;;;;;;0.05;0.05;;;;;;;22.03;80.81;99193.25;4828231;29;19966;-93
2023/08/03 16:35:03;;;;;;;0.00;0.00;;;;;;;21.98;81.62;99189.22;4840327;29;21802;-95
2023/08/03 16:37:29;;;;;;;0.05;0.05;;;;;;;21.84;82.80;99193.22;4838310;29;20068;-92
2023/08/03 16:39:58;;;;;;;1.08;0.25;;;;;;;21.64;85.57;99174.75;4840907;29;20109;-92
2023/08/03 16:42:23;;;;;;;1.08;0.52;;;;;;;21.45;87.88;99178.88;4838524;29;20038;-93
2023/08/03 16:44:49;;;;;;;0.20;0.20;;;;;;;21.40;90.52;99172.78;4840550;29;20049;-92
2023/08/03 16:47:15;;;;;;;1.05;0.95;;;;;;;21.32;92.61;99160.56;4834791;29;20729;-92
2023/08/03 16:49:42;;;;;;;0.50;0.40;;;;;;;21.32;94.75;99162.63;4824803;29;20049;-93
2023/08/03 16:52:09;;;;;;;0.25;0.25;;;;;;;21.27;96.49;99169.84;4843772;29;20084;-93
2023/08/03 16:54:39;;;;;;;0.38;0.30;;;;;;;21.14;96.34;99166.97;4857529;29;20053;-93
2023/08/03 16:57:06;;;;;;;1.50;1.13;;;;;;;21.02;98.30;99171.19;4859298;29;20135;-92
2023/08/03 16:59:32;;;;;;;0.10;0.10;;;;;;;20.77;100.00;99167.59;4866831;29;20057;-95
2023/08/03 17:01:58;;;;;;;2.63;0.20;;;;;;;20.61;100.00;99148.78;4875632;29;20495;-93
2023/08/03 17:04:24;;;;;;;0.45;0.45;;;;;;;20.61;100.00;99156.47;4856429;29;20062;-92
2023/08/03 17:39:14;;;;;;;0.00;0.00;;;;;;;20.11;100.00;99199.88;4867443;23;20053;-95
2023/08/03 17:41:48;;;;;;;0.85;0.50;;;;;;;20.12;100.00;99204.22;4861782;29;20041;-96
2023/08/03 17:44:15;;;;;;;0.17;0.17;;;;;;;19.88;100.00;99178.81;4873411;29;20051;-95
2023/08/03 17:46:44;;;;;;;0.17;0.17;;;;;;;20.04;100.00;99203.25;4848714;29;20076;-92
2023/08/03 17:52:09;;;;;;;0.10;0.10;;;;;;;19.90;100.00;99195.91;4839505;29;20064;-92
2023/08/03 17:54:36;;;;;;;0.22;0.22;;;;;;;19.65;100.00;99186.63;4823780;29;20053;-92
2023/08/03 17:57:02;;;;;;;0.10;0.10;;;;;;;19.76;100.00;99222.38;4822706;29;20088;-93
2023/08/03 17:59:29;;;;;;;0.68;0.28;;;;;;;19.46;100.00;99178.00;4810372;29;20093;-93
2023/08/03 18:01:59;;;;;;;0.00;0.00;;;;;;;19.62;100.00;99195.31;4830820;29;20046;-92
2023/08/03 18:04:28;;;;;;;0.38;0.22;;;;;;;19.44;100.00;99189.03;4828413;29;20069;-93
2023/08/03 18:06:54;;;;;;;1.02;0.45;;;;;;;19.53;100.00;99216.84;4829719;29;20049;-92
2023/08/03 18:09:19;;;;;;;0.32;0.32;;;;;;;19.48;100.00;99211.25;4831310;29;20518;-90
2023/08/03 18:11:45;;;;;;;0.50;0.38;;;;;;;19.31;100.00;99200.03;4826049;29;20041;-92
2023/08/03 18:14:11;;;;;;;1.85;0.77;;;;;;;19.34;100.00;99204.63;4828226;29;20045;-93
2023/08/03 18:16:37;;;;;;;0.10;0.10;;;;;;;19.39;100.00;99214.31;4824768;29;20046;-91
2023/08/03 18:19:03;;;;;;;0.30;0.30;;;;;;;19.28;100.00;99198.25;4818300;29;20045;-91
2023/08/03 18:21:29;;;;;;;0.45;0.45;;;;;;;19.20;100.00;99188.84;4823429;29;20046;-93
2023/08/03 18:23:56;;;;;;;0.20;0.20;;;;;;;19.23;100.00;99199.03;4817210;29;20054;-92
2023/08/03 18:26:23;;;;;;;0.00;0.00;;;;;;;19.34;100.00;99209.47;4824483;29;20046;-91
2023/08/03 18:28:55;;;;;;;0.03;0.03;;;;;;;19.20;100.00;99200.09;4835368;29;20057;-92
2023/08/03 18:31:21;;;;;;;0.40;0.30;;;;;;;19.35;100.00;99217.41;4838732;29;20042;-92
2023/08/03 18:33:47;;;;;;;0.10;0.10;;;;;;;19.13;100.00;99185.81;4836109;29;20045;-91
2023/08/03 18:36:15;;;;;;;0.08;0.08;;;;;;;19.01;100.00;99171.75;4839212;29;20060;-91